Time;durP1;ratioP1;P1;durP2;ratioP2;P2;SDS_P1;SDS_P2;PMS_P1;PMS_P2;Temp;Humidity;BMP_temperature;BMP_pressure;BME280_temperature;BME280_humidity;BME280_pressure;Samples;Min_cycle;Max_cycle;Signal;HPM_P1;HPM_P2
2023/07/09 00:01:55;;;;;;;7.65;2.20;;;19.60;99.90;;;19.09;100.00;101462.28;4170863;28;20021;-73
2023/07/09 00:03:55;;;;;;;7.82;1.83;;;19.60;99.90;;;19.14;100.00;101473.22;4188012;28;20099;-73
2023/07/09 00:05:56;;;;;;;10.70;2.80;;;19.60;99.90;;;19.12;100.00;101465.38;4187942;28;20492;-73
2023/07/09 00:08:00;;;;;;;8.73;3.03;;;19.60;99.90;;;19.07;100.00;101459.81;4170265;28;20089;-73
2023/07/09 00:10:01;;;;;;;8.60;1.98;;;19.60;99.90;;;19.10;100.00;101463.94;4170886;28;20029;-73
2023/07/09 00:12:02;;;;;;;9.68;2.42;;;19.60;99.90;;;19.06;100.00;101455.47;4170188;28;20079;-73
2023/07/09 00:14:05;;;;;;;8.80;2.30;;;19.60;99.90;;;19.08;100.00;101434.72;4170331;28;20030;-73
2023/07/09 00:16:21;;;;;;;6.50;2.20;;;19.60;99.90;;;19.03;100.00;101409.56;4170444;28;20037;-73
2023/07/09 00:18:22;;;;;;;9.02;2.65;;;19.50;99.90;;;19.08;100.00;101415.16;4170482;28;20091;-73
2023/07/09 00:20:23;;;;;;;7.22;2.08;;;19.50;99.90;;;19.07;100.00;101424.22;4187680;28;20041;-73
2023/07/09 00:22:23;;;;;;;9.20;2.53;;;19.50;99.90;;;19.03;100.00;101436.31;4169938;28;20029;-73
2023/07/09 00:24:24;;;;;;;8.88;2.35;;;19.50;99.90;;;19.03;100.00;101447.00;4188007;28;20492;-73
2023/07/09 00:26:26;;;;;;;8.55;2.58;;;19.50;99.90;;;19.03;100.00;101438.97;4187788;28;20488;-73
2023/07/09 00:28:26;;;;;;;10.07;2.00;;;19.50;99.90;;;19.02;100.00;101426.66;4169947;28;20576;-73
2023/07/09 00:30:27;;;;;;;8.45;2.35;;;19.50;99.90;;;19.03;100.00;101436.31;4187764;28;20033;-73
2023/07/09 00:32:28;;;;;;;8.20;2.50;;;19.50;99.90;;;18.96;100.00;101433.59;4187852;28;20439;-73
2023/07/09 00:34:29;;;;;;;9.98;2.00;;;19.40;99.90;;;18.95;100.00;101434.63;4187781;28;20025;-73
2023/07/09 00:36:31;;;;;;;9.48;2.30;;;19.40;99.90;;;18.99;100.00;101435.06;4169774;28;20025;-73
2023/07/09 00:38:38;;;;;;;7.82;3.03;;;19.50;99.90;;;18.96;100.00;101430.94;4187602;28;20025;-73
2023/07/09 00:41:00;;;;;;;7.22;2.47;;;19.40;99.90;;;19.00;100.00;101440.19;4187596;28;20048;-73
2023/07/09 00:43:02;;;;;;;8.70;1.83;;;19.50;99.90;;;18.99;100.00;101435.06;4171775;28;20370;-73
2023/07/09 00:45:24;;;;;;;12.38;2.50;;;19.40;99.90;;;19.01;100.00;101433.00;4169654;28;20020;-73
2023/07/09 00:48:03;;;;;;;9.30;1.85;;;19.50;99.90;;;19.00;100.00;101434.84;4187567;28;20040;-73
2023/07/09 00:50:47;;;;;;;9.88;2.40;;;19.40;99.90;;;19.00;100.00;101424.16;4160268;28;20500;-73
2023/07/09 00:52:56;;;;;;;9.40;2.97;;;19.40;99.90;;;18.99;100.00;101445.75;4169227;28;20029;-73
2023/07/09 00:55:00;;;;;;;8.07;2.30;;;19.40;99.90;;;18.95;100.00;101447.16;4170064;28;20033;-73
2023/07/09 00:57:11;;;;;;;10.77;2.50;;;19.40;99.90;;;18.98;100.00;101454.78;4169869;28;20072;-73
2023/07/09 00:59:18;;;;;;;8.30;2.25;;;19.40;99.90;;;18.98;100.00;101449.44;4187530;28;20111;-73
2023/07/09 01:01:20;;;;;;;6.72;1.63;;;19.40;99.90;;;18.97;100.00;101453.13;4169675;28;20026;-74
2023/07/09 01:03:48;;;;;;;10.63;2.40;;;19.40;99.90;;;18.98;100.00;101455.63;4168073;28;20029;-73
2023/07/09 01:05:51;;;;;;;8.48;1.85;;;19.40;99.90;;;18.96;100.00;101457.66;4184791;28;20070;-73
2023/07/09 01:07:53;;;;;;;12.00;3.10;;;19.40;99.90;;;18.96;100.00;101457.66;4185610;28;20177;-73
2023/07/09 01:09:54;;;;;;;10.10;1.95;;;19.40;99.90;;;18.89;100.00;101439.91;4187308;28;20119;-73
2023/07/09 01:12:00;;;;;;;8.70;2.17;;;19.40;99.90;;;18.95;100.00;101465.88;4187113;28;20025;-73
2023/07/09 01:14:05;;;;;;;10.95;2.85;;;19.40;99.90;;;18.91;100.00;101461.91;4169256;28;20044;-73
2023/07/09 01:16:06;;;;;;;11.13;2.50;;;19.40;99.90;;;18.89;100.00;101477.31;4153192;28;20509;-73
2023/07/09 01:18:08;;;;;;;11.02;2.58;;;19.40;99.90;;;18.86;100.00;101467.00;4186991;28;20029;-73
2023/07/09 01:20:14;;;;;;;11.48;2.50;;;19.30;99.90;;;18.85;100.00;101455.50;4186915;28;20060;-73
2023/07/09 01:22:19;;;;;;;12.63;2.78;;;19.30;99.90;;;18.82;100.00;101455.06;4156948;28;20113;-73
2023/07/09 01:25:01;;;;;;;9.13;2.67;;;19.30;99.90;;;18.84;100.00;101474.41;4169491;28;20512;-73
2023/07/09 01:27:03;;;;;;;6.25;2.13;;;19.30;99.90;;;18.82;100.00;101471.91;4119813;28;20046;-73
2023/07/09 01:29:04;;;;;;;7.82;2.05;;;19.30;99.90;;;18.82;100.00;101465.78;4104003;29;20039;-73
2023/07/09 01:31:05;;;;;;;5.40;2.13;;;19.30;99.90;;;18.79;100.00;101457.09;4113060;28;20114;-73
2023/07/09 01:33:09;;;;;;;9.10;3.33;;;19.30;99.90;;;18.81;100.00;101472.13;4168069;28;20041;-73
2023/07/09 01:35:11;;;;;;;6.85;2.50;;;19.30;99.90;;;18.79;100.00;101465.13;4169295;28;20025;-73
2023/07/09 01:37:12;;;;;;;10.00;2.40;;;19.30;99.90;;;18.78;100.00;101471.50;4186551;28;20033;-73
2023/07/09 01:39:13;;;;;;;8.85;2.83;;;19.20;99.90;;;18.79;100.00;101465.13;4186682;28;20025;-73
2023/07/09 01:41:14;;;;;;;8.73;2.67;;;19.30;99.90;;;18.76;100.00;101462.81;4169007;28;20025;-73
2023/07/09 01:43:15;;;;;;;10.93;2.83;;;19.20;99.90;;;18.79;100.00;101472.28;4168777;28;20128;-73
2023/07/09 01:45:16;;;;;;;9.30;2.10;;;19.30;99.90;;;18.78;100.00;101476.00;4186645;28;20064;-73
2023/07/09 01:47:18;;;;;;;7.85;2.25;;;19.20;99.90;;;18.78;100.00;101468.00;4169040;28;20060;-73
2023/07/09 01:49:20;;;;;;;8.60;2.22;;;19.30;99.90;;;18.81;100.00;101469.44;4168884;28;20024;-73
2023/07/09 01:51:24;;;;;;;7.18;2.03;;;19.30;99.90;;;18.77;100.00;101459.13;4186448;28;20033;-73
2023/07/09 01:53:27;;;;;;;13.15;3.38;;;19.20;99.90;;;18.73;100.00;101447.16;4186361;28;20029;-73
2023/07/09 01:55:29;;;;;;;7.50;1.70;;;19.30;99.90;;;18.76;100.00;101444.09;4168867;28;20026;-73
2023/07/09 01:57:34;;;;;;;10.10;2.08;;;19.20;99.90;;;18.81;100.00;101432.84;4168874;28;20040;-73
2023/07/09 01:59:41;;;;;;;4.93;1.70;;;19.30;99.90;;;18.79;100.00;101435.72;4186487;28;20033;-73
2023/07/09 02:01:42;;;;;;;11.65;2.67;;;19.30;99.90;;;18.72;100.00;101440.19;4186276;28;20115;-73
2023/07/09 02:03:43;;;;;;;5.32;1.73;;;19.20;99.90;;;18.69;100.00;101445.91;4168577;28;20029;-73
2023/07/09 02:05:46;;;;;;;7.22;2.00;;;19.20;99.90;;;18.68;100.00;101454.94;4186080;28;20036;-73
2023/07/09 02:07:47;;;;;;;10.95;2.35;;;19.20;99.90;;;18.66;100.00;101457.00;4186172;28;20033;-73
2023/07/09 02:09:49;;;;;;;10.88;2.08;;;19.20;99.90;;;18.65;100.00;101454.50;4168541;28;20029;-73
2023/07/09 02:11:50;;;;;;;7.45;2.28;;;19.20;99.90;;;18.65;100.00;101459.84;4168591;28;20073;-73
2023/07/09 02:13:50;;;;;;;8.48;2.03;;;19.20;99.90;;;18.58;100.00;101443.72;4185807;28;20025;-73
2023/07/09 02:15:51;;;;;;;9.88;1.83;;;19.10;99.90;;;18.62;100.00;101442.34;4186219;28;20017;-73
2023/07/09 02:17:52;;;;;;;10.02;2.20;;;19.20;99.90;;;18.64;100.00;101447.47;4168572;28;20029;-73
2023/07/09 02:19:53;;;;;;;7.22;2.00;;;19.20;99.90;;;18.63;100.00;101451.19;4185939;28;20080;-73
2023/07/09 02:21:54;;;;;;;14.00;2.20;;;19.10;99.90;;;18.66;100.00;101454.31;4167903;28;20025;-73
2023/07/09 02:23:55;;;;;;;11.13;2.22;;;19.10;99.90;;;18.62;100.00;101450.38;4186329;28;20082;-73
2023/07/09 02:25:56;;;;;;;8.30;2.17;;;19.10;99.90;;;18.58;100.00;101443.72;4185847;28;20067;-73
2023/07/09 02:27:57;;;;;;;10.43;2.70;;;19.10;99.90;;;18.60;100.00;101444.38;4168085;28;20056;-73
2023/07/09 02:29:58;;;;;;;8.77;1.90;;;19.10;99.90;;;18.56;100.00;101442.28;4168251;28;20032;-73
2023/07/09 02:32:00;;;;;;;7.63;1.98;;;19.10;99.90;;;18.61;100.00;101446.03;4168276;28;20025;-73
2023/07/09 02:34:03;;;;;;;4.40;1.63;;;19.10;99.90;;;18.62;100.00;101445.00;4185797;28;20029;-73
2023/07/09 02:36:04;;;;;;;8.77;1.98;;;19.10;99.90;;;18.62;100.00;101428.97;4184520;28;20021;-73
2023/07/09 02:38:05;;;;;;;5.90;1.75;;;19.10;99.90;;;18.59;100.00;101423.19;4185573;28;20029;-73
2023/07/09 02:40:09;;;;;;;6.13;2.00;;;19.10;99.90;;;18.61;100.00;101435.34;4168189;28;20108;-73
2023/07/09 02:42:11;;;;;;;;;;;19.10;99.90;;;18.54;100.00;101452.34;4168717;28;20025;-73
2023/07/09 02:44:12;;;;;;;6.80;2.30;;;19.10;99.90;;;18.53;100.00;101450.66;4185751;28;20296;-73
2023/07/09 02:46:13;;;;;;;10.85;1.90;;;19.00;99.90;;;18.53;100.00;101440.81;4185624;28;20029;-74
2023/07/09 02:48:14;;;;;;;6.13;1.65;;;19.00;99.90;;;18.53;100.00;101439.97;4167512;28;20038;-73
2023/07/09 02:50:14;;;;;;;8.18;2.00;;;19.00;99.90;;;18.53;100.00;101451.50;4185605;28;20017;-73
2023/07/09 02:52:15;;;;;;;5.72;1.90;;;19.00;99.90;;;18.48;100.00;101437.88;4185386;28;20029;-73
2023/07/09 02:54:16;;;;;;;5.18;2.38;;;19.00;99.90;;;18.50;100.00;101446.53;4185484;28;20029;-73
2023/07/09 02:56:17;;;;;;;6.47;1.98;;;19.00;99.90;;;18.48;100.00;101437.03;4185524;28;20040;-73
2023/07/09 02:58:18;;;;;;;8.82;2.63;;;19.00;99.90;;;18.45;100.00;101438.25;4168149;28;20022;-73
2023/07/09 03:00:19;;;;;;;7.30;1.95;;;19.00;99.90;;;18.46;100.00;101439.88;4167816;28;20044;-73
2023/07/09 03:02:20;;;;;;;8.65;2.38;;;19.00;99.90;;;18.47;100.00;101438.88;4151268;28;20053;-73
2023/07/09 03:04:21;;;;;;;7.32;2.03;;;19.00;99.90;;;18.42;100.00;101433.28;4167565;28;20406;-73
2023/07/09 03:06:23;;;;;;;5.63;2.25;;;18.90;99.90;;;18.44;100.00;101439.25;4167831;28;20108;-73
2023/07/09 03:08:24;;;;;;;6.53;1.80;;;18.90;99.90;;;18.42;100.00;101432.44;4167500;28;20025;-74
2023/07/09 03:10:25;;;;;;;5.03;1.58;;;18.90;99.90;;;18.40;100.00;101429.94;4167761;28;20029;-73
2023/07/09 03:12:26;;;;;;;11.48;2.20;;;18.90;99.90;;;18.37;100.00;101435.69;4167716;28;20041;-73
2023/07/09 03:14:27;;;;;;;6.90;2.15;;;18.90;99.90;;;18.36;100.00;101434.03;4185279;28;20024;-73
2023/07/09 03:16:31;;;;;;;8.32;2.08;;;18.90;99.90;;;18.35;100.00;101421.69;4185218;28;20135;-74
2023/07/09 03:18:32;;;;;;;6.18;1.88;;;18.90;99.90;;;18.31;100.00;101422.28;4167480;28;20029;-73
2023/07/09 03:20:33;;;;;;;7.95;2.70;;;18.80;99.90;;;18.28;100.00;101411.97;4200165;28;20528;-73
2023/07/09 03:22:34;;;;;;;6.45;1.73;;;18.80;99.90;;;18.28;100.00;101411.97;4168342;28;20075;-73
2023/07/09 03:24:36;;;;;;;5.93;1.80;;;18.80;99.90;;;18.25;100.00;101413.97;4168833;28;20057;-73
2023/07/09 03:26:37;;;;;;;6.35;2.15;;;18.80;99.90;;;18.25;100.00;101407.81;4166563;28;20472;-73
2023/07/09 03:28:38;;;;;;;6.60;2.33;;;18.80;99.90;;;18.24;100.00;101400.84;4168510;28;20025;-73
2023/07/09 03:30:47;;;;;;;8.65;2.22;;;18.80;99.90;;;18.26;100.00;101393.44;4168670;28;20021;-73
2023/07/09 03:32:48;;;;;;;9.23;2.97;;;18.80;99.90;;;18.20;100.00;101388.88;4134763;28;20158;-73
2023/07/09 03:34:49;;;;;;;8.00;2.60;;;18.70;99.90;;;18.20;100.00;101391.53;4167472;28;20025;-74
2023/07/09 03:36:50;;;;;;;7.35;1.85;;;18.70;99.90;;;18.17;100.00;101389.25;4168195;28;20060;-73
2023/07/09 03:38:51;;;;;;;3.58;1.70;;;18.70;99.90;;;18.16;100.00;101400.94;4168710;28;20022;-73
2023/07/09 03:40:53;;;;;;;5.55;1.95;;;18.70;99.90;;;18.15;100.00;101396.63;4167283;28;20025;-73
2023/07/09 03:42:54;;;;;;;6.88;1.80;;;18.60;99.90;;;18.15;100.00;101401.97;4167433;28;20071;-73
2023/07/09 03:44:55;;;;;;;7.93;2.00;;;18.70;99.90;;;18.07;100.00;101394.91;4168403;28;20459;-73
2023/07/09 03:46:56;;;;;;;6.43;2.20;;;18.60;99.90;;;18.11;100.00;101408.69;4167401;28;20033;-73
2023/07/09 03:48:59;;;;;;;9.00;2.40;;;18.60;99.90;;;18.09;100.00;101402.72;4167406;28;20041;-73
2023/07/09 03:51:00;;;;;;;7.32;2.10;;;18.60;99.90;;;18.12;100.00;101421.03;4167470;28;20076;-73
2023/07/09 03:53:01;;;;;;;9.32;2.20;;;18.60;99.90;;;18.10;100.00;101415.03;4166921;28;20089;-73
2023/07/09 03:55:04;;;;;;;6.80;2.15;;;18.60;99.90;;;18.15;100.00;101426.00;4167559;28;20029;-73
2023/07/09 03:57:06;;;;;;;7.18;2.08;;;18.60;99.90;;;18.15;100.00;101415.31;4183452;28;20021;-73
2023/07/09 03:59:07;;;;;;;8.05;2.25;;;18.70;99.90;;;18.21;100.00;101419.91;4167152;28;20036;-73
2023/07/09 04:01:08;;;;;;;9.50;2.50;;;18.70;99.90;;;18.11;100.00;101409.53;4199883;28;20025;-73
2023/07/09 04:03:09;;;;;;;9.15;1.88;;;18.70;99.90;;;18.24;100.00;101433.72;4167283;28;20026;-73
2023/07/09 04:05:11;;;;;;;7.32;2.10;;;18.70;99.90;;;18.26;100.00;101444.19;4167067;28;20117;-73
2023/07/09 04:07:12;;;;;;;6.57;1.98;;;18.70;99.90;;;18.29;100.00;101451.84;4168075;28;20408;-73
2023/07/09 04:09:14;;;;;;;7.80;2.10;;;18.80;99.90;;;18.30;100.00;101458.84;4168240;28;20428;-73
2023/07/09 04:11:14;;;;;;;6.57;2.00;;;18.80;99.90;;;18.28;100.00;101458.19;4168388;28;20052;-73
2023/07/09 04:13:15;;;;;;;8.05;2.00;;;18.80;99.90;;;18.30;100.00;101472.19;4168332;28;20026;-73
2023/07/09 04:15:16;;;;;;;6.57;1.58;;;18.80;99.90;;;18.35;100.00;101491.16;4167188;28;20513;-73
2023/07/09 04:17:17;;;;;;;8.65;1.77;;;18.80;99.90;;;18.35;100.00;101493.81;4168217;28;20120;-73
2023/07/09 04:19:18;;;;;;;8.05;2.63;;;18.80;99.90;;;18.36;100.00;101497.31;4168301;28;20044;-73
2023/07/09 04:21:19;;;;;;;4.63;1.45;;;18.80;99.90;;;18.30;100.00;101495.41;4182872;28;20099;-73
2023/07/09 04:23:20;;;;;;;7.78;1.77;;;18.90;99.90;;;18.35;100.00;101512.50;4184366;28;20032;-73
2023/07/09 04:25:21;;;;;;;8.05;1.92;;;18.90;99.90;;;18.35;100.00;101512.50;4184558;28;20404;-73
2023/07/09 04:27:27;;;;;;;9.27;2.05;;;18.90;99.90;;;18.35;100.00;101506.34;4184709;28;20081;-73
2023/07/09 04:29:28;;;;;;;7.20;1.63;;;18.90;99.90;;;18.34;100.00;101518.06;4183333;28;20033;-73
2023/07/09 04:31:29;;;;;;;7.28;2.10;;;18.80;99.90;;;18.34;100.00;101539.44;4199552;28;20032;-73
2023/07/09 04:33:30;;;;;;;7.35;2.00;;;18.80;99.90;;;18.29;100.00;101529.28;4184600;28;20405;-73
2023/07/09 04:35:31;;;;;;;8.30;2.10;;;18.90;99.90;;;18.35;100.00;101531.22;4184692;28;20086;-73
2023/07/09 04:37:32;;;;;;;7.00;2.13;;;18.90;99.90;;;18.34;100.00;101521.53;4167839;28;20075;-73
2023/07/09 04:39:33;;;;;;;9.43;2.42;;;18.80;99.90;;;18.36;100.00;101522.19;4187631;28;20488;-73
2023/07/09 04:41:34;;;;;;;7.15;2.25;;;18.80;99.90;;;18.35;100.00;101511.69;4187492;28;20029;-73
2023/07/09 04:43:35;;;;;;;4.13;1.60;;;18.80;99.90;;;18.33;100.00;101505.72;4169947;28;20030;-73
2023/07/09 04:45:36;;;;;;;5.75;1.70;;;18.80;99.90;;;18.37;100.00;101507.81;4169888;28;20059;-73
2023/07/09 04:47:38;;;;;;;5.32;1.60;;;18.80;99.90;;;18.37;100.00;101515.00;4186144;28;20068;-73
2023/07/09 04:49:40;;;;;;;6.82;1.55;;;18.80;99.90;;;18.37;100.00;101512.34;4169538;28;20049;-73
2023/07/09 04:51:40;;;;;;;7.15;2.22;;;18.90;99.90;;;18.36;100.00;101508.00;4169760;28;20056;-73
2023/07/09 04:53:42;;;;;;;6.47;1.60;;;18.90;99.90;;;18.37;100.00;101507.00;4169764;28;20025;-73
2023/07/09 04:55:43;;;;;;;8.07;2.65;;;18.90;99.90;;;18.36;100.00;101506.16;4187755;28;20431;-73
2023/07/09 04:57:43;;;;;;;6.97;2.15;;;18.90;99.90;;;18.38;100.00;101505.97;4169452;28;20033;-73
2023/07/09 04:59:44;;;;;;;9.27;2.70;;;18.90;99.90;;;18.38;100.00;101505.97;4169514;28;20033;-73
2023/07/09 05:01:46;;;;;;;9.13;2.47;;;18.90;99.90;;;18.49;100.00;101519.69;4187387;28;20029;-73
2023/07/09 05:03:47;;;;;;;9.30;2.28;;;19.00;99.90;;;18.51;100.00;101504.31;4169665;28;20025;-73
2023/07/09 05:05:48;;;;;;;10.70;2.75;;;19.00;99.90;;;18.54;100.00;101506.63;4187096;28;20044;-73
2023/07/09 05:07:50;;;;;;;9.18;2.15;;;19.00;99.90;;;18.56;100.00;101509.91;4169286;28;20079;-74
2023/07/09 05:09:51;;;;;;;8.35;1.88;;;19.00;99.90;;;18.67;100.00;101511.25;4187097;28;20021;-73
2023/07/09 05:11:52;;;;;;;7.95;2.15;;;19.10;99.90;;;18.68;100.00;101507.56;4187170;28;20022;-73
2023/07/09 05:13:53;;;;;;;6.45;2.78;;;19.20;99.90;;;18.77;100.00;101530.47;4169531;28;20531;-73
2023/07/09 05:15:55;;;;;;;8.10;2.63;;;19.20;99.90;;;18.78;100.00;101524.13;4185812;28;20025;-73
2023/07/09 05:17:56;;;;;;;10.82;3.40;;;19.20;99.90;;;18.81;100.00;101528.25;4169413;28;20076;-73
2023/07/09 05:19:56;;;;;;;8.25;3.63;;;19.30;99.90;;;18.80;100.00;101524.75;4152760;28;20046;-74
2023/07/09 05:21:58;;;;;;;7.30;2.30;;;19.30;99.90;;;18.82;100.00;101536.06;4168831;28;20096;-73
2023/07/09 05:23:58;;;;;;;4.65;1.60;;;19.30;99.90;;;18.81;100.00;101528.25;4170541;28;20114;-73
2023/07/09 05:26:02;;;;;;;7.55;2.55;;;19.30;99.90;;;18.83;100.00;101523.53;4169303;28;20029;-73
2023/07/09 05:28:05;;;;;;;6.75;2.42;;;19.30;99.90;;;18.85;100.00;101530.34;4169181;28;20072;-73
2023/07/09 05:30:06;;;;;;;7.43;2.25;;;19.30;99.90;;;18.85;100.00;101535.69;4169014;28;20060;-73
2023/07/09 05:32:07;;;;;;;8.60;2.78;;;19.30;99.90;;;18.89;100.00;101538.81;4170652;28;20021;-73
2023/07/09 05:34:08;;;;;;;10.93;3.30;;;19.30;99.90;;;18.84;100.00;101534.06;4169168;28;20405;-73
2023/07/09 05:36:15;;;;;;;8.38;2.80;;;19.30;99.90;;;18.89;100.00;101533.47;4168561;28;20029;-73
2023/07/09 05:38:16;;;;;;;11.70;2.22;;;19.30;99.90;;;18.91;100.00;101536.78;4169515;28;20064;-74
2023/07/09 05:40:17;;;;;;;9.98;2.72;;;19.40;99.90;;;18.95;100.00;101535.38;4168715;28;20033;-74
2023/07/09 05:42:18;;;;;;;7.00;2.42;;;19.40;99.90;;;18.96;100.00;101521.00;4169919;28;20132;-74
2023/07/09 05:44:19;;;;;;;9.73;2.67;;;19.40;99.90;;;19.06;100.00;101525.00;4201854;28;20029;-74
2023/07/09 05:46:22;;;;;;;9.50;2.28;;;19.50;99.90;;;19.15;100.00;101531.03;4169562;28;20060;-74
2023/07/09 05:48:23;;;;;;;7.65;2.22;;;19.60;99.90;;;19.24;100.00;101538.72;4170032;28;20058;-73
2023/07/09 05:50:26;;;;;;;5.78;2.03;;;19.60;99.90;;;19.27;100.00;101545.53;4169444;28;20025;-74
2023/07/09 05:52:29;;;;;;;10.05;2.92;;;19.70;99.90;;;19.25;100.00;101547.59;4168651;28;20026;-73
2023/07/09 05:54:31;;;;;;;10.40;2.78;;;19.70;99.90;;;19.22;100.00;101558.69;4168915;28;20033;-73
2023/07/09 05:56:32;;;;;;;5.75;2.35;;;19.70;99.90;;;19.18;100.00;101554.72;4168967;28;20033;-74
2023/07/09 05:58:33;;;;;;;6.82;2.33;;;19.70;99.90;;;19.17;100.00;101553.09;4169991;28;20029;-74
2023/07/09 06:00:33;;;;;;;13.95;2.88;;;19.60;99.90;;;19.16;100.00;101543.41;4169552;28;20041;-73
2023/07/09 06:02:35;;;;;;;4.90;2.38;;;19.60;99.90;;;19.17;100.00;101545.06;4169693;28;20033;-73
2023/07/09 06:04:36;;;;;;;10.05;2.85;;;19.60;99.90;;;19.16;100.00;101557.59;4169966;28;20380;-73
2023/07/09 06:06:36;;;;;;;7.50;2.60;;;19.60;99.90;;;19.13;100.00;101549.13;4169548;28;20034;-73
2023/07/09 06:08:37;;;;;;;4.63;2.10;;;19.60;99.90;;;19.13;100.00;101541.09;4169967;28;20025;-73
2023/07/09 06:10:41;;;;;;;7.50;2.30;;;19.60;99.90;;;19.19;100.00;101541.16;4169683;28;20497;-73
2023/07/09 06:12:42;;;;;;;8.45;3.15;;;19.60;99.90;;;19.22;100.00;101543.47;4169861;28;20026;-73
2023/07/09 06:14:43;;;;;;;7.93;2.78;;;19.70;99.90;;;19.32;100.00;101553.84;4168446;28;20083;-74
2023/07/09 06:16:44;;;;;;;7.35;2.50;;;19.70;99.90;;;19.32;100.00;101532.44;4168493;28;20514;-73
2023/07/09 06:18:45;;;;;;;9.27;2.05;;;19.80;99.90;;;19.43;100.00;101525.75;4168234;28;20080;-73
2023/07/09 06:20:58;;;;;;;7.85;2.45;;;19.90;99.90;;;19.54;100.00;101520.69;4179661;28;20083;-73
2023/07/09 06:23:00;;;;;;;8.23;2.92;;;20.00;99.90;;;19.73;100.00;101522.66;4167933;28;20048;-74
2023/07/09 06:25:01;;;;;;;6.00;2.50;;;20.10;99.90;;;19.91;100.00;101526.66;4168119;28;20067;-74
2023/07/09 06:27:02;;;;;;;7.82;2.58;;;20.20;99.90;;;20.07;100.00;101526.34;4168112;28;20033;-73
2023/07/09 06:29:04;;;;;;;6.22;3.00;;;20.30;99.90;;;20.16;100.00;101536.69;4151953;28;20076;-73
2023/07/09 06:31:04;;;;;;;7.28;2.50;;;20.40;99.90;;;20.18;100.00;101540.00;4186002;28;20035;-73
2023/07/09 06:33:05;;;;;;;4.90;2.53;;;20.50;99.90;;;20.21;100.00;101536.94;4185966;28;20445;-74
2023/07/09 06:35:07;;;;;;;7.75;3.03;;;20.60;99.90;;;20.22;100.00;101535.09;4185755;28;20032;-74
2023/07/09 06:37:08;;;;;;;7.13;2.50;;;20.60;99.90;;;20.31;100.00;101542.75;4151385;28;20036;-74
2023/07/09 06:39:09;;;;;;;6.68;2.40;;;20.70;99.90;;;20.43;100.00;101548.34;4185512;28;20031;-74
2023/07/09 06:41:11;;;;;;;8.30;2.72;;;20.80;99.90;;;20.50;100.00;101543.84;4201048;28;20104;-73
2023/07/09 06:43:12;;;;;;;6.05;2.72;;;20.90;99.90;;;20.45;100.00;101546.31;4167824;28;20037;-73
2023/07/09 06:45:13;;;;;;;8.60;2.40;;;20.90;99.90;;;20.45;100.00;101550.84;4185751;28;20029;-73
2023/07/09 06:47:14;;;;;;;5.43;2.38;;;20.90;99.90;;;20.47;100.00;101563.03;4185687;28;20069;-73
2023/07/09 06:49:15;;;;;;;9.70;2.88;;;20.90;99.90;;;20.46;100.00;101560.56;4185707;28;20017;-73
2023/07/09 06:51:16;;;;;;;8.75;2.22;;;20.90;99.90;;;20.42;100.00;101557.44;4184317;28;20028;-73
2023/07/09 06:53:17;;;;;;;7.13;2.45;;;20.90;99.90;;;20.40;100.00;101564.84;4157114;28;20022;-73
2023/07/09 06:55:18;;;;;;;9.80;2.60;;;20.90;99.90;;;20.37;100.00;101574.09;4185518;28;20025;-73
2023/07/09 06:57:19;;;;;;;9.02;2.80;;;20.80;99.90;;;20.33;100.00;101574.72;4184275;28;20021;-73
2023/07/09 06:59:20;;;;;;;8.18;2.47;;;20.80;99.90;;;20.38;100.00;101574.94;4167614;28;20037;-73
2023/07/09 07:01:20;;;;;;;7.75;2.40;;;20.80;99.90;;;20.32;100.00;101573.06;4185692;28;20043;-73
2023/07/09 07:03:25;;;;;;;6.80;2.30;;;20.80;99.90;;;20.29;100.00;101578.81;4167720;28;20026;-73
2023/07/09 07:05:26;;;;;;;9.40;3.08;;;20.70;99.90;;;20.20;100.00;101571.94;4200598;28;20645;-73
2023/07/09 07:07:27;;;;;;;7.75;2.88;;;20.70;99.90;;;20.20;100.00;101555.88;4167293;28;20037;-73
2023/07/09 07:09:28;;;;;;;11.70;3.20;;;20.70;99.90;;;20.29;100.00;101568.09;4167733;28;20092;-73
2023/07/09 07:11:30;;;;;;;8.15;2.20;;;20.70;99.90;;;20.34;100.00;101569.16;4151251;28;20034;-73
2023/07/09 07:13:42;;;;;;;5.80;2.20;;;20.80;99.90;;;20.32;100.00;101567.69;4185526;28;20013;-73
2023/07/09 07:15:49;;;;;;;6.25;2.20;;;20.80;99.90;;;20.29;100.00;101584.19;4185239;28;20104;-74
2023/07/09 07:17:50;;;;;;;4.95;1.77;;;20.70;99.90;;;20.21;100.00;101584.31;4185348;28;20025;-74
2023/07/09 07:19:51;;;;;;;5.88;1.92;;;20.70;99.90;;;20.20;100.00;101580.81;4167440;28;20096;-74
2023/07/09 07:21:53;;;;;;;9.50;3.08;;;20.70;99.90;;;20.30;100.00;101597.38;4184940;28;20086;-74
2023/07/09 07:23:53;;;;;;;5.47;2.28;;;20.70;99.90;;;20.30;100.00;101592.03;4185326;28;20033;-74
2023/07/09 07:25:55;;;;;;;6.25;2.42;;;20.80;99.90;;;20.34;100.00;101587.91;4167544;28;20436;-73
2023/07/09 07:27:55;;;;;;;7.15;2.03;;;20.80;99.90;;;20.41;100.00;101579.91;4185102;28;20519;-74
2023/07/09 07:29:57;;;;;;;5.75;2.67;;;20.80;99.90;;;20.49;100.00;101571.69;4167376;28;20022;-73
2023/07/09 07:32:00;;;;;;;6.70;2.15;;;20.90;99.90;;;20.59;100.00;101571.31;4154132;28;20030;-73
2023/07/09 07:34:01;;;;;;;6.82;1.95;;;21.00;99.90;;;20.80;100.00;101572.00;4200369;28;20021;-73
2023/07/09 07:36:05;;;;;;;6.05;2.13;;;21.20;99.90;;;20.93;100.00;101565.84;4200411;28;20036;-74
2023/07/09 07:38:06;;;;;;;7.97;2.25;;;21.40;99.90;;;20.99;100.00;101570.38;4167047;28;20036;-74
2023/07/09 07:40:09;;;;;;;8.55;3.50;;;21.50;99.90;;;21.05;100.00;101576.78;4183646;28;20032;-75
2023/07/09 07:42:10;;;;;;;9.77;2.60;;;21.50;99.90;;;21.07;100.00;101583.59;4167432;28;20421;-74
2023/07/09 07:44:11;;;;;;;6.63;2.47;;;21.50;99.90;;;20.99;100.00;101578.44;4185101;28;20060;-74
2023/07/09 07:46:12;;;;;;;9.45;2.75;;;21.50;99.90;;;20.93;100.00;101590.81;4167162;28;20029;-74
2023/07/09 07:48:13;;;;;;;8.10;2.78;;;21.40;99.90;;;20.87;100.00;101583.56;4183532;28;20392;-74
2023/07/09 07:50:14;;;;;;;5.55;2.20;;;21.40;99.90;;;20.81;100.00;101600.47;4166817;28;20061;-74
2023/07/09 07:52:15;;;;;;;5.70;2.00;;;21.30;99.90;;;20.75;100.00;101595.09;4200433;28;20028;-74
2023/07/09 07:54:18;;;;;;;8.02;2.40;;;21.30;99.90;;;20.67;100.00;101606.00;4167242;28;20424;-74
2023/07/09 07:56:19;;;;;;;11.05;3.25;;;21.20;99.90;;;20.58;100.00;101599.16;4167426;28;20516;-74
2023/07/09 07:58:19;;;;;;;8.73;2.60;;;21.10;99.90;;;20.60;100.00;101605.97;4184960;28;20108;-74
2023/07/09 08:00:20;;;;;;;9.88;3.50;;;21.10;99.90;;;20.61;100.00;101596.09;4166995;28;20033;-74
2023/07/09 08:02:23;;;;;;;6.13;2.35;;;21.00;99.90;;;20.66;100.00;101594.44;4184993;28;20111;-74
2023/07/09 08:04:24;;;;;;;5.10;2.03;;;21.10;99.90;;;20.76;100.00;101597.56;4154650;28;20101;-74
2023/07/09 08:06:25;;;;;;;6.78;2.70;;;21.20;99.90;;;20.90;100.00;101609.16;4168591;28;20029;-74
2023/07/09 08:08:26;;;;;;;11.20;2.58;;;21.30;99.90;;;20.93;100.00;101604.22;4166948;28;20535;-74
2023/07/09 08:10:27;;;;;;;7.68;1.98;;;21.30;99.90;;;20.95;100.00;101610.19;4167203;28;20025;-74
2023/07/09 08:12:28;;;;;;;6.30;2.47;;;21.40;99.90;;;20.91;100.00;101617.00;4185693;28;20040;-74
2023/07/09 08:14:29;;;;;;;9.48;2.70;;;21.40;99.90;;;20.91;100.00;101622.34;4170493;28;20112;-74
2023/07/09 08:16:30;;;;;;;7.53;2.55;;;21.30;99.90;;;20.90;100.00;101626.09;4187978;28;20025;-74
2023/07/09 08:18:31;;;;;;;8.07;2.88;;;21.40;99.90;;;20.96;100.00;101630.66;4170257;28;20095;-74
2023/07/09 08:20:33;;;;;;;8.55;2.47;;;21.40;99.90;;;20.95;100.00;101628.16;4170032;28;20485;-74
2023/07/09 08:22:34;;;;;;;6.72;2.20;;;21.40;99.90;;;20.85;100.00;101617.81;4171650;28;20425;-72
2023/07/09 08:24:34;;;;;;;9.32;2.33;;;21.30;99.90;;;20.77;100.00;101615.31;4170184;28;20063;-74